createdAt,value
2018-06-29T00:01:34.133Z,16.16
2018-06-29T00:04:03.077Z,16.13
2018-06-29T00:06:31.898Z,16.05
2018-06-29T00:09:00.733Z,16.09
2018-06-29T00:11:29.645Z,16.07
2018-06-29T00:13:58.435Z,16.05
2018-06-29T00:16:27.278Z,16.01
2018-06-29T00:18:56.427Z,16.16
2018-06-29T00:21:25.201Z,16.17
2018-06-29T00:23:53.992Z,16.18
2018-06-29T00:26:22.816Z,16.19
2018-06-29T00:28:51.581Z,16.19
2018-06-29T00:31:20.340Z,16.15
2018-06-29T00:33:49.181Z,16.08
2018-06-29T00:36:17.961Z,16.12
2018-06-29T00:38:46.728Z,16.10
2018-06-29T00:41:15.749Z,16.06
2018-06-29T00:43:44.509Z,16.07
2018-06-29T00:46:13.290Z,16.04
2018-06-29T00:48:42.616Z,15.98
2018-06-29T00:51:11.396Z,15.93
2018-06-29T00:53:40.242Z,16.02
2018-06-29T00:56:09.276Z,16.13
2018-06-29T00:58:38.045Z,16.19
2018-06-29T01:01:06.887Z,16.23
2018-06-29T01:03:35.860Z,16.26
2018-06-29T01:06:04.648Z,16.22
2018-06-29T01:08:33.427Z,16.13
2018-06-29T01:11:02.264Z,16.07
2018-06-29T01:13:31.049Z,16.08
2018-06-29T01:15:59.874Z,16.06
2018-06-29T01:18:28.830Z,16.11
2018-06-29T01:20:57.612Z,16.13
2018-06-29T01:23:26.400Z,16.12
2018-06-29T01:25:55.531Z,16.05
2018-06-29T01:28:24.379Z,16.11
2018-06-29T01:30:53.217Z,16.23
2018-06-29T01:33:22.152Z,16.22
2018-06-29T01:35:51.131Z,16.22
2018-06-29T01:38:19.906Z,16.15
2018-06-29T01:40:48.826Z,16.22
2018-06-29T01:43:17.673Z,16.26
2018-06-29T01:45:46.484Z,16.22
2018-06-29T01:48:15.306Z,16.15
2018-06-29T01:50:44.085Z,16.21
2018-06-29T01:53:12.850Z,16.28
2018-06-29T01:55:41.947Z,16.26
2018-06-29T01:58:10.734Z,16.25
2018-06-29T02:00:39.506Z,16.23
2018-06-29T02:03:08.346Z,16.29
2018-06-29T02:05:37.176Z,16.28
2018-06-29T02:08:06.104Z,16.30
2018-06-29T02:10:35.339Z,16.20
2018-06-29T02:13:04.197Z,16.25
2018-06-29T02:15:32.996Z,16.13
2018-06-29T02:18:01.823Z,16.08
2018-06-29T02:20:30.625Z,16.16
2018-06-29T02:22:59.392Z,16.18
2018-06-29T02:25:28.226Z,16.24
2018-06-29T02:27:57.014Z,16.22
2018-06-29T02:30:25.960Z,16.25
2018-06-29T02:32:55.133Z,16.21
2018-06-29T02:35:23.963Z,16.16
2018-06-29T02:37:52.706Z,16.11
2018-06-29T02:40:21.521Z,16.15
2018-06-29T02:42:50.334Z,16.16
2018-06-29T02:45:19.104Z,16.19
2018-06-29T02:47:48.244Z,16.13
2018-06-29T02:50:17.024Z,15.99
2018-06-29T02:52:45.796Z,16.11
2018-06-29T02:55:14.669Z,16.12
2018-06-29T02:57:43.450Z,16.11
2018-06-29T03:00:12.278Z,16.17
2018-06-29T03:02:41.090Z,16.18
2018-06-29T03:05:09.855Z,16.14
2018-06-29T03:07:38.647Z,16.03
2018-06-29T03:10:07.516Z,15.98
2018-06-29T03:12:36.328Z,15.96
2018-06-29T03:15:05.284Z,15.89
2018-06-29T03:17:34.120Z,16.00
2018-06-29T03:20:02.914Z,15.92
2018-06-29T03:22:31.675Z,15.91
2018-06-29T03:25:00.556Z,15.94
2018-06-29T03:27:29.365Z,15.92
2018-06-29T03:29:58.136Z,15.76
2018-06-29T03:32:27.113Z,15.79
2018-06-29T03:34:55.905Z,15.82
2018-06-29T03:37:24.741Z,15.83
2018-06-29T03:39:53.599Z,15.84
2018-06-29T03:42:22.382Z,15.96
2018-06-29T03:44:51.178Z,16.00
2018-06-29T03:47:20.012Z,15.93
2018-06-29T03:49:48.785Z,15.89
2018-06-29T03:52:17.619Z,15.93
2018-06-29T03:54:46.464Z,16.01
2018-06-29T03:57:15.244Z,16.12
2018-06-29T03:59:44.044Z,16.14
2018-06-29T04:02:12.880Z,16.14
2018-06-29T04:04:41.879Z,16.10
2018-06-29T04:07:10.669Z,16.15
2018-06-29T04:09:39.489Z,16.15
2018-06-29T04:12:08.358Z,16.15
2018-06-29T04:14:37.157Z,16.15
2018-06-29T04:17:06.323Z,16.20
2018-06-29T04:19:35.130Z,16.25
2018-06-29T04:22:03.940Z,16.31
2018-06-29T04:24:32.979Z,16.28
2018-06-29T04:27:01.730Z,16.34
2018-06-29T04:29:30.505Z,16.31
2018-06-29T04:31:59.647Z,16.31
2018-06-29T04:34:28.420Z,16.38
2018-06-29T04:36:57.192Z,16.34
2018-06-29T04:39:25.985Z,16.39
2018-06-29T04:41:54.796Z,16.43
2018-06-29T04:44:23.563Z,16.37
2018-06-29T04:46:52.400Z,16.36
2018-06-29T04:49:21.195Z,16.36
2018-06-29T04:51:50.012Z,16.45
2018-06-29T04:54:18.832Z,16.42
2018-06-29T04:56:47.615Z,16.43
2018-06-29T04:59:16.413Z,16.49
2018-06-29T05:01:45.411Z,16.49
2018-06-29T05:04:14.183Z,16.55
2018-06-29T05:06:42.935Z,16.59
2018-06-29T05:09:11.727Z,16.56
2018-06-29T05:11:40.499Z,16.69
2018-06-29T05:14:09.280Z,16.78
2018-06-29T05:16:38.217Z,16.95
2018-06-29T05:19:07.017Z,17.07
2018-06-29T05:21:35.791Z,17.29
2018-06-29T05:24:04.729Z,17.77
2018-06-29T05:26:33.540Z,18.54
2018-06-29T05:29:02.328Z,19.13
2018-06-29T05:31:31.132Z,19.28
2018-06-29T05:33:59.974Z,19.15
2018-06-29T05:36:28.794Z,18.99
2018-06-29T05:38:57.607Z,18.58
2018-06-29T05:41:26.522Z,18.38
2018-06-29T05:43:55.277Z,18.07
2018-06-29T05:46:24.143Z,17.80
2018-06-29T05:48:52.936Z,17.47
2018-06-29T05:51:21.802Z,17.28
2018-06-29T05:53:50.943Z,17.25
2018-06-29T05:56:19.734Z,17.20
2018-06-29T05:58:48.530Z,17.16
2018-06-29T06:01:17.427Z,17.22
2018-06-29T06:03:46.265Z,17.19
2018-06-29T06:06:15.037Z,17.18
2018-06-29T06:08:43.845Z,17.25
2018-06-29T06:11:12.614Z,17.26
2018-06-29T06:13:41.413Z,17.27
2018-06-29T06:16:10.631Z,17.42
2018-06-29T06:18:39.370Z,17.49
2018-06-29T06:21:08.282Z,17.48
2018-06-29T06:23:37.097Z,17.55
2018-06-29T06:26:05.879Z,17.67
2018-06-29T06:28:34.753Z,17.65
2018-06-29T06:31:03.741Z,17.69
2018-06-29T06:33:32.509Z,17.57
2018-06-29T06:36:01.327Z,17.51
2018-06-29T06:38:30.265Z,17.50
2018-06-29T06:40:59.043Z,17.62
2018-06-29T06:43:27.823Z,17.69
2018-06-29T06:45:56.644Z,17.82
2018-06-29T06:48:25.408Z,17.74
2018-06-29T06:50:54.242Z,17.77
2018-06-29T06:53:23.083Z,17.84
2018-06-29T06:55:51.855Z,17.86
2018-06-29T06:58:20.698Z,17.76
2018-06-29T07:00:49.700Z,17.75
2018-06-29T07:03:18.494Z,17.86
2018-06-29T07:05:47.274Z,17.95
2018-06-29T07:08:16.078Z,17.85
2018-06-29T07:10:44.899Z,17.82
2018-06-29T07:13:13.691Z,17.94
2018-06-29T07:15:42.507Z,17.82
2018-06-29T07:18:11.318Z,17.97
2018-06-29T07:20:40.098Z,18.02
2018-06-29T07:23:09.081Z,18.03
2018-06-29T07:25:37.891Z,18.12
2018-06-29T07:28:06.998Z,18.14
2018-06-29T07:30:36.106Z,18.19
2018-06-29T07:33:04.877Z,18.38
2018-06-29T07:35:33.677Z,18.61
2018-06-29T07:38:02.500Z,18.72
2018-06-29T07:40:31.319Z,18.70
2018-06-29T07:43:00.087Z,18.74
2018-06-29T07:45:29.240Z,18.80
2018-06-29T07:47:58.031Z,18.87
2018-06-29T07:50:26.837Z,19.00
2018-06-29T07:52:55.999Z,19.15
2018-06-29T07:55:24.807Z,19.20
2018-06-29T07:57:53.587Z,19.06
2018-06-29T08:00:22.393Z,19.03
2018-06-29T08:02:51.151Z,19.00
2018-06-29T08:05:19.951Z,19.14
2018-06-29T08:07:48.868Z,19.19
2018-06-29T08:10:17.659Z,19.13
2018-06-29T08:12:46.450Z,19.12
2018-06-29T08:15:15.238Z,19.15
2018-06-29T08:17:43.989Z,19.23
2018-06-29T08:20:12.793Z,19.25
2018-06-29T08:22:41.583Z,19.42
2018-06-29T08:25:13.189Z,19.63
2018-06-29T08:27:42.291Z,19.85
2018-06-29T08:30:12.034Z,20.08
2018-06-29T08:32:40.922Z,20.24
2018-06-29T08:35:10.751Z,20.46
2018-06-29T08:37:40.065Z,20.64
2018-06-29T08:40:09.968Z,20.76
2018-06-29T08:42:38.920Z,20.69
2018-06-29T08:45:08.741Z,20.67
2018-06-29T08:47:37.556Z,20.47
2018-06-29T08:50:06.615Z,20.50
2018-06-29T08:52:35.403Z,20.72
2018-06-29T08:55:04.591Z,20.97
2018-06-29T08:57:33.421Z,21.18
2018-06-29T09:00:02.256Z,21.41
2018-06-29T09:02:31.225Z,21.39
2018-06-29T09:05:00.241Z,21.55
2018-06-29T09:07:28.992Z,21.62
2018-06-29T09:09:57.787Z,21.56
2018-06-29T09:12:26.700Z,21.49
2018-06-29T09:14:55.501Z,21.43
2018-06-29T09:17:24.272Z,21.31
2018-06-29T09:19:53.321Z,21.27
2018-06-29T09:22:22.136Z,21.09
2018-06-29T09:24:50.967Z,20.84
2018-06-29T09:27:19.731Z,20.91
2018-06-29T09:29:48.582Z,20.88
2018-06-29T09:32:17.338Z,20.68
2018-06-29T09:34:46.192Z,20.55
2018-06-29T09:37:14.981Z,20.44
2018-06-29T09:39:43.780Z,20.31
2018-06-29T09:42:12.709Z,20.37
2018-06-29T09:44:41.511Z,20.49
2018-06-29T09:47:10.302Z,20.50
2018-06-29T09:49:39.475Z,20.61
2018-06-29T09:52:08.339Z,20.64
2018-06-29T09:54:37.160Z,20.78
2018-06-29T09:57:06.979Z,20.83
2018-06-29T09:59:35.780Z,20.89
2018-06-29T10:02:04.750Z,20.96
2018-06-29T10:04:33.566Z,20.94
2018-06-29T10:07:02.380Z,21.03
2018-06-29T10:09:31.151Z,20.92
2018-06-29T10:12:00.192Z,20.93
2018-06-29T10:14:29.103Z,21.01
2018-06-29T10:16:57.870Z,21.02
2018-06-29T10:19:26.877Z,21.07
2018-06-29T10:21:55.736Z,20.98
2018-06-29T10:24:24.618Z,21.10
2018-06-29T10:26:53.445Z,21.07
2018-06-29T10:29:22.260Z,21.22
2018-06-29T10:31:51.040Z,21.46
2018-06-29T10:34:19.870Z,21.71
2018-06-29T10:36:48.738Z,21.94
2018-06-29T10:39:17.504Z,22.12
2018-06-29T10:41:46.396Z,22.12
2018-06-29T10:44:15.177Z,22.08
2018-06-29T10:46:43.975Z,22.10
2018-06-29T10:49:12.796Z,22.06
2018-06-29T10:51:41.557Z,22.00
2018-06-29T10:54:10.361Z,21.97
2018-06-29T10:56:39.281Z,21.88
2018-06-29T10:59:08.086Z,21.93
2018-06-29T11:01:36.880Z,21.86
2018-06-29T11:04:05.734Z,21.75
2018-06-29T11:06:34.526Z,21.68
2018-06-29T11:09:03.487Z,21.59
2018-06-29T11:11:32.437Z,21.61
2018-06-29T11:14:01.293Z,21.64
2018-06-29T11:16:30.121Z,21.66
2018-06-29T11:18:59.274Z,21.69
2018-06-29T11:21:29.031Z,21.62
2018-06-29T11:23:57.846Z,21.78
2018-06-29T11:26:26.773Z,21.63
2018-06-29T11:28:55.738Z,21.56
2018-06-29T11:31:24.544Z,21.45
2018-06-29T11:33:53.545Z,21.29
2018-06-29T11:36:22.377Z,21.31
2018-06-29T11:38:51.172Z,21.26
2018-06-29T11:41:20.096Z,21.14
2018-06-29T11:43:48.928Z,21.15
2018-06-29T11:46:17.765Z,21.00
2018-06-29T11:48:46.724Z,20.63
2018-06-29T11:51:15.465Z,20.39
2018-06-29T11:53:44.263Z,20.34
2018-06-29T11:56:13.111Z,20.29
2018-06-29T11:58:41.909Z,20.10
2018-06-29T12:01:10.773Z,20.08
2018-06-29T12:03:39.637Z,19.78
2018-06-29T12:06:08.445Z,19.79
2018-06-29T12:08:37.296Z,19.86
2018-06-29T12:11:06.701Z,19.75
2018-06-29T12:13:35.526Z,19.78
2018-06-29T12:16:04.327Z,19.83
2018-06-29T12:18:33.203Z,19.82
2018-06-29T12:21:02.007Z,19.91
2018-06-29T12:23:30.802Z,19.95
2018-06-29T12:25:59.751Z,19.93
2018-06-29T12:28:28.640Z,19.91
2018-06-29T12:30:57.990Z,19.85
2018-06-29T12:33:26.831Z,19.89
2018-06-29T12:35:55.642Z,20.02
2018-06-29T12:38:24.415Z,20.06
2018-06-29T12:40:53.313Z,20.24
2018-06-29T12:43:22.246Z,20.13
2018-06-29T12:45:51.085Z,20.20
2018-06-29T12:48:19.905Z,20.14
2018-06-29T12:50:48.684Z,20.15
2018-06-29T12:53:17.463Z,20.00
2018-06-29T12:55:46.438Z,20.22
2018-06-29T12:58:15.281Z,20.28
2018-06-29T13:00:44.130Z,20.40
2018-06-29T13:03:13.134Z,20.37
2018-06-29T13:05:42.054Z,20.14
2018-06-29T13:08:10.837Z,20.21
2018-06-29T13:10:39.642Z,20.26
2018-06-29T13:13:08.442Z,20.22
2018-06-29T13:15:37.274Z,20.26
2018-06-29T13:18:06.200Z,20.23
2018-06-29T13:20:35.006Z,20.19
2018-06-29T13:23:03.960Z,20.08
2018-06-29T13:25:33.079Z,20.09
2018-06-29T13:28:01.884Z,20.11
2018-06-29T13:30:30.676Z,19.86
2018-06-29T13:32:59.473Z,19.94
2018-06-29T13:35:28.265Z,19.82
2018-06-29T13:37:57.106Z,19.93
2018-06-29T13:40:25.928Z,19.84
2018-06-29T13:42:54.727Z,19.86
2018-06-29T13:45:23.540Z,19.88
2018-06-29T13:47:52.356Z,19.90
2018-06-29T13:50:21.134Z,19.99
2018-06-29T13:52:49.927Z,19.97
2018-06-29T13:55:18.744Z,19.91
2018-06-29T13:57:47.550Z,20.00
2018-06-29T14:00:16.344Z,19.93
2018-06-29T14:02:45.362Z,19.89
2018-06-29T14:05:14.497Z,19.84
2018-06-29T14:07:43.340Z,19.80
2018-06-29T14:10:12.347Z,19.85
2018-06-29T14:12:41.153Z,19.93
2018-06-29T14:15:10.928Z,19.95
2018-06-29T14:17:39.774Z,19.87
2018-06-29T14:20:08.643Z,19.90
2018-06-29T14:22:37.473Z,19.84
2018-06-29T14:25:06.705Z,19.72
2018-06-29T14:27:35.512Z,19.73
2018-06-29T14:30:04.456Z,19.63
2018-06-29T14:32:33.362Z,19.71
2018-06-29T14:35:02.234Z,19.68
2018-06-29T14:37:31.023Z,19.63
2018-06-29T14:40:00.012Z,19.66
2018-06-29T14:42:28.814Z,19.68
2018-06-29T14:44:57.611Z,19.73
2018-06-29T14:47:26.404Z,19.68
2018-06-29T14:49:55.181Z,19.61
2018-06-29T14:52:23.966Z,19.76
2018-06-29T14:54:52.916Z,19.78
2018-06-29T14:57:21.729Z,19.81
2018-06-29T14:59:50.533Z,19.81
2018-06-29T15:02:19.482Z,19.91
2018-06-29T15:04:48.300Z,19.77
2018-06-29T15:07:17.100Z,19.58
2018-06-29T15:09:45.921Z,19.65
2018-06-29T15:12:14.727Z,19.69
2018-06-29T15:14:43.530Z,19.72
2018-06-29T15:17:12.348Z,19.74
2018-06-29T15:19:41.173Z,19.73
2018-06-29T15:22:09.994Z,19.75
2018-06-29T15:24:38.843Z,19.61
2018-06-29T15:27:07.640Z,19.40
2018-06-29T15:29:36.452Z,19.39
2018-06-29T15:32:05.469Z,19.38
2018-06-29T15:34:34.245Z,19.39
2018-06-29T15:37:03.060Z,19.30
2018-06-29T15:39:31.967Z,19.29
2018-06-29T15:42:00.748Z,19.33
2018-06-29T15:44:29.547Z,19.27
2018-06-29T15:46:58.406Z,19.30
2018-06-29T15:49:27.225Z,19.22
2018-06-29T15:51:56.024Z,19.12
2018-06-29T15:54:25.295Z,18.97
2018-06-29T15:56:54.109Z,18.97
2018-06-29T15:59:22.968Z,18.94
2018-06-29T16:01:51.829Z,18.80
2018-06-29T16:04:20.659Z,18.83
2018-06-29T16:06:49.510Z,18.80
2018-06-29T16:09:18.424Z,18.72
2018-06-29T16:11:47.249Z,18.77
2018-06-29T16:14:16.068Z,18.75
2018-06-29T16:16:45.063Z,18.74
2018-06-29T16:19:13.857Z,18.78
2018-06-29T16:21:42.709Z,18.63
2018-06-29T16:24:11.687Z,18.45
2018-06-29T16:26:40.484Z,18.42
2018-06-29T16:29:09.358Z,18.45
2018-06-29T16:31:38.160Z,18.33
2018-06-29T16:34:06.940Z,18.33
